Time;durP1;ratioP1;P1;durP2;ratioP2;P2;SDS_P1;SDS_P2;PMS_P1;PMS_P2;Temp;Humidity;BMP_temperature;BMP_pressure;BME280_temperature;BME280_humidity;BME280_pressure;Samples;Min_cycle;Max_cycle;Signal;HPM_P1;HPM_P2
2022/09/17 00:33:43;;;;;;;0.93;0.68;;;16.80;91.60;;;;;;5096148;22;20504;-66
2022/09/17 00:36:09;;;;;;;4.78;0.70;;;16.80;91.60;;;;;;5072511;28;20032;-69
2022/09/17 00:38:35;;;;;;;1.63;0.60;;;16.80;91.60;;;;;;5073443;28;20024;-69
2022/09/17 00:41:01;;;;;;;2.33;0.82;;;16.90;91.90;;;;;;5055119;28;20020;-69
2022/09/17 00:43:42;;;;;;;2.40;0.77;;;16.80;91.50;;;;;;5072876;28;20125;-69
2022/09/17 00:46:36;;;;;;;1.77;0.70;;;16.80;91.50;;;;;;5071733;28;20025;-69
2022/09/17 00:49:09;;;;;;;3.40;0.60;;;16.80;91.50;;;;;;5062531;28;20043;-69
2022/09/17 00:51:46;;;;;;;1.77;0.70;;;16.80;91.50;;;;;;5056748;28;20477;-69
2022/09/17 00:54:12;;;;;;;0.80;0.80;;;16.80;91.50;;;;;;5072655;28;20044;-69
2022/09/17 00:56:40;;;;;;;1.40;0.57;;;16.80;91.50;;;;;;5071917;28;20059;-69
2022/09/17 00:59:07;;;;;;;0.57;0.57;;;16.80;91.50;;;;;;5073310;28;20028;-69
2022/09/17 01:12:16;;;;;;;0.75;0.70;;;16.80;91.40;;;;;;5014811;28;20553;-69
2022/09/17 01:22:17;;;;;;;2.45;0.70;;;16.80;91.40;;;;;;4992160;28;20080;-69
2022/09/17 01:25:02;;;;;;;0.73;0.73;;;16.80;91.40;;;;;;4981181;28;20073;-69
2022/09/17 01:27:39;;;;;;;0.50;0.50;;;16.80;91.40;;;;;;4972382;28;20126;-69
2022/09/17 01:30:13;;;;;;;0.68;0.60;;;16.80;91.40;;;;;;4990078;28;20050;-69
2022/09/17 01:32:48;;;;;;;0.63;0.63;;;16.80;91.40;;;;;;4981576;28;20026;-69
2022/09/17 01:35:24;;;;;;;0.55;0.55;;;16.80;91.40;;;;;;5001916;28;20044;-69
2022/09/17 01:38:08;;;;;;;8.40;0.68;;;16.80;91.30;;;;;;5012228;28;20056;-69
2022/09/17 01:40:48;;;;;;;1.05;0.60;;;16.80;91.30;;;;;;5010073;28;20049;-69
2022/09/17 01:43:44;;;;;;;0.43;0.40;;;16.80;91.30;;;;;;5033980;28;20487;-69
2022/09/17 01:46:29;;;;;;;0.70;0.70;;;16.80;91.30;;;;;;5043599;28;20727;-69
2022/09/17 01:49:00;;;;;;;0.60;0.60;;;16.80;91.30;;;;;;5047828;28;20028;-69
2022/09/17 01:51:30;;;;;;;0.70;0.70;;;16.80;91.30;;;;;;5072240;28;20040;-69
2022/09/17 01:54:08;;;;;;;0.85;0.60;;;16.70;91.30;;;;;;5071943;28;20024;-69
2022/09/17 01:57:07;;;;;;;0.82;0.57;;;16.80;91.30;;;;;;5071229;28;20037;-69
2022/09/17 01:59:38;;;;;;;2.75;0.60;;;16.80;91.30;;;;;;5047448;28;20076;-68
2022/09/17 02:02:13;;;;;;;2.42;0.80;;;16.80;91.30;;;;;;5071543;28;20043;-68
2022/09/17 02:04:45;;;;;;;0.60;0.60;;;16.80;91.20;;;;;;5045178;28;20047;-69
2022/09/17 02:07:19;;;;;;;1.85;0.60;;;16.80;91.20;;;;;;5071339;28;20211;-69
2022/09/17 02:09:52;;;;;;;0.68;0.57;;;16.80;91.20;;;;;;5055523;28;20028;-69
2022/09/17 02:12:22;;;;;;;4.32;0.77;;;16.70;91.20;;;;;;5071277;28;20043;-70
2022/09/17 02:14:52;;;;;;;1.17;0.70;;;16.80;91.20;;;;;;5071582;28;20343;-69
2022/09/17 02:17:40;;;;;;;1.05;0.70;;;16.70;91.20;;;;;;5070462;28;20032;-70
2022/09/17 02:20:06;;;;;;;0.70;0.70;;;16.80;91.20;;;;;;5058111;28;20036;-69
2022/09/17 02:22:55;;;;;;;1.95;0.80;;;16.70;91.10;;;;;;5070872;28;20132;-69
2022/09/17 02:25:41;;;;;;;1.05;0.70;;;16.70;91.20;;;;;;5050782;28;20477;-69
2022/09/17 02:28:39;;;;;;;0.95;0.57;;;16.70;91.10;;;;;;5052524;28;20028;-69
2022/09/17 02:31:05;;;;;;;1.10;0.80;;;16.70;91.10;;;;;;5057499;28;20021;-69
2022/09/17 02:33:33;;;;;;;0.57;0.57;;;16.70;91.10;;;;;;5051666;28;20021;-69
2022/09/17 02:35:59;;;;;;;1.77;1.00;;;16.70;91.10;;;;;;5070507;28;20037;-69
2022/09/17 02:38:27;;;;;;;0.52;0.52;;;16.70;91.10;;;;;;5070599;28;20028;-69
2022/09/17 02:41:13;;;;;;;1.92;0.65;;;16.70;91.10;;;;;;5071072;28;20017;-69
2022/09/17 02:43:55;;;;;;;0.73;0.60;;;16.70;91.10;;;;;;5070665;28;20035;-69
2022/09/17 02:46:36;;;;;;;0.55;0.55;;;16.70;91.10;;;;;;5069942;28;20545;-69
2022/09/17 02:49:09;;;;;;;;;;;16.70;91.10;;;;;;5061899;28;20119;-68
2022/09/17 02:51:49;;;;;;;3.30;0.75;;;16.70;91.10;;;;;;5070726;28;19904;-69
2022/09/17 02:54:37;;;;;;;1.02;0.70;;;16.70;91.00;;;;;;5052779;28;20089;-69
2022/09/17 02:57:26;;;;;;;0.65;0.60;;;16.70;91.00;;;;;;5070680;28;20029;-69
2022/09/17 03:00:14;;;;;;;0.60;0.60;;;16.70;91.00;;;;;;5054564;28;20473;-69
2022/09/17 03:02:57;;;;;;;0.68;0.68;;;16.70;91.00;;;;;;5070073;28;20028;-69
2022/09/17 03:05:25;;;;;;;1.10;0.60;;;16.70;91.00;;;;;;5058352;28;20482;-69
2022/09/17 03:07:50;;;;;;;0.63;0.63;;;16.70;91.00;;;;;;5069691;28;20052;-69
2022/09/17 03:10:17;;;;;;;0.40;0.40;;;16.70;91.00;;;;;;5052659;28;20056;-69
2022/09/17 03:12:43;;;;;;;3.65;0.70;;;16.70;91.30;;;;;;5070155;28;20024;-69
2022/09/17 03:15:09;;;;;;;0.70;0.70;;;16.70;91.00;;;;;;5070915;28;20531;-69
2022/09/17 03:17:34;;;;;;;2.45;0.70;;;16.70;91.00;;;;;;5069005;28;20012;-69
2022/09/17 03:20:00;;;;;;;3.05;0.68;;;16.70;91.00;;;;;;5051305;28;20435;-69
2022/09/17 03:22:26;;;;;;;3.67;1.15;;;16.70;91.00;;;;;;5070495;28;20052;-68
2022/09/17 03:24:51;;;;;;;1.88;0.70;;;16.70;91.00;;;;;;5067851;28;20028;-69
2022/09/17 03:27:17;;;;;;;2.25;0.77;;;16.70;91.00;;;;;;5069060;28;20032;-69
2022/09/17 03:29:43;;;;;;;1.55;0.60;;;16.70;90.90;;;;;;5051734;28;20056;-69
2022/09/17 03:32:08;;;;;;;1.20;0.60;;;16.70;90.90;;;;;;5069769;28;20027;-69
2022/09/17 03:34:34;;;;;;;0.75;0.70;;;16.70;90.90;;;;;;5068865;28;20508;-69
2022/09/17 03:37:00;;;;;;;3.15;0.85;;;16.60;90.90;;;;;;5069292;28;20475;-69
2022/09/17 03:39:25;;;;;;;0.75;0.73;;;16.70;90.90;;;;;;5069897;28;20063;-69
2022/09/17 03:41:51;;;;;;;2.13;0.80;;;16.70;90.90;;;;;;5051909;28;20032;-69
2022/09/17 03:44:18;;;;;;;3.40;0.70;;;16.60;90.90;;;;;;5069751;28;20028;-69
2022/09/17 03:57:00;;;;;;;0.70;0.70;;;16.60;90.90;;;;;;5069490;28;20470;-69
2022/09/17 03:59:26;;;;;;;5.28;0.80;;;16.60;90.90;;;;;;5069638;28;20070;-69
2022/09/17 04:01:52;;;;;;;2.97;0.90;;;16.60;90.80;;;;;;5069562;28;20021;-69
2022/09/17 04:04:17;;;;;;;1.60;0.60;;;16.60;90.80;;;;;;5050371;28;20067;-69
2022/09/17 04:06:43;;;;;;;5.60;1.02;;;16.60;90.80;;;;;;5050736;28;20033;-69
2022/09/17 04:09:08;;;;;;;3.63;0.73;;;16.60;90.80;;;;;;5069641;28;20070;-69
2022/09/17 04:11:34;;;;;;;2.55;1.00;;;16.60;90.80;;;;;;5069888;28;20040;-69
2022/09/17 04:14:06;;;;;;;2.47;0.80;;;16.60;90.80;;;;;;5053079;28;20024;-69
2022/09/17 04:16:31;;;;;;;6.00;0.82;;;16.60;91.10;;;;;;5068612;28;20034;-69
2022/09/17 04:18:57;;;;;;;5.63;1.00;;;16.60;90.80;;;;;;5068880;28;20594;-69
2022/09/17 04:21:22;;;;;;;2.92;1.15;;;16.60;90.80;;;;;;5069360;28;20075;-69
2022/09/17 04:23:48;;;;;;;4.30;0.60;;;16.60;90.80;;;;;;5068039;28;20232;-69
2022/09/17 04:26:14;;;;;;;1.90;1.15;;;16.60;90.80;;;;;;5069069;28;20037;-69
2022/09/17 04:28:39;;;;;;;8.02;1.02;;;16.60;90.80;;;;;;5069353;28;20028;-69
2022/09/17 04:31:05;;;;;;;1.80;0.70;;;16.60;90.80;;;;;;5069463;28;20019;-69
2022/09/17 04:33:30;;;;;;;2.45;0.80;;;16.60;90.70;;;;;;5051342;28;20028;-69
2022/09/17 04:35:56;;;;;;;5.63;1.00;;;16.60;90.70;;;;;;5049654;28;20062;-69
2022/09/17 04:38:21;;;;;;;5.10;0.98;;;16.60;90.70;;;;;;5069311;28;20021;-69
2022/09/17 04:40:47;;;;;;;6.05;0.98;;;16.60;90.70;;;;;;5069331;28;20029;-69
2022/09/17 04:43:13;;;;;;;1.58;0.93;;;16.60;90.70;;;;;;5051121;28;20044;-69
2022/09/17 04:45:39;;;;;;;4.18;1.10;;;16.60;90.70;;;;;;5069062;28;20082;-69
2022/09/17 04:48:04;;;;;;;2.20;0.93;;;16.60;90.70;;;;;;5052282;28;20021;-69
2022/09/17 04:50:30;;;;;;;3.38;1.08;;;16.50;90.60;;;;;;5067982;28;20374;-69
2022/09/17 04:52:56;;;;;;;3.75;1.30;;;16.60;90.70;;;;;;5069093;28;20096;-69
2022/09/17 04:55:22;;;;;;;4.30;1.20;;;16.60;90.70;;;;;;5051221;28;20516;-69
2022/09/17 04:57:49;;;;;;;4.30;0.82;;;16.50;90.70;;;;;;5068881;28;20039;-69
2022/09/17 05:00:16;;;;;;;1.98;0.90;;;16.50;90.60;;;;;;5051966;28;20060;-69
2022/09/17 05:02:48;;;;;;;7.82;1.02;;;16.50;90.60;;;;;;5072415;28;20089;-69
2022/09/17 05:05:16;;;;;;;4.68;1.05;;;16.50;90.60;;;;;;5071212;28;20051;-69
2022/09/17 05:07:42;;;;;;;8.43;2.17;;;16.50;90.60;;;;;;5072069;28;20033;-69
2022/09/17 05:10:09;;;;;;;3.25;0.98;;;16.50;90.60;;;;;;5054522;28;20550;-69
2022/09/17 05:12:35;;;;;;;6.20;1.33;;;16.50;90.60;;;;;;5072486;28;20023;-69
2022/09/17 05:15:01;;;;;;;6.93;1.13;;;16.50;90.60;;;;;;5072462;28;20025;-68
2022/09/17 05:17:26;;;;;;;12.20;1.38;;;16.50;90.60;;;;;;5071980;28;20082;-69
2022/09/17 05:19:52;;;;;;;2.60;0.80;;;16.50;90.60;;;;;;5071071;28;20028;-69
2022/09/17 05:22:18;;;;;;;6.15;1.13;;;16.50;90.60;;;;;;5072235;28;20123;-70
2022/09/17 05:24:44;;;;;;;4.75;1.02;;;16.50;90.60;;;;;;5070912;28;20035;-69
2022/09/17 05:27:09;;;;;;;4.72;0.98;;;16.50;90.60;;;;;;5045865;28;20021;-69
2022/09/17 05:29:35;;;;;;;4.40;1.05;;;16.50;90.60;;;;;;5072084;28;20024;-69
2022/09/17 05:32:02;;;;;;;2.45;0.80;;;16.50;90.50;;;;;;5071908;28;20078;-69
2022/09/17 05:34:27;;;;;;;5.05;1.00;;;16.50;90.50;;;;;;5070830;28;20032;-69
2022/09/17 05:36:53;;;;;;;6.15;1.23;;;16.50;90.60;;;;;;5071710;28;20022;-68
2022/09/17 05:39:21;;;;;;;4.80;1.40;;;16.50;90.50;;;;;;5072136;28;20419;-69
2022/09/17 05:41:47;;;;;;;7.65;1.48;;;16.50;90.50;;;;;;5053884;28;20027;-69
2022/09/17 05:44:12;;;;;;;7.53;1.33;;;16.50;90.50;;;;;;5071680;28;20020;-69
2022/09/17 05:46:38;;;;;;;4.93;0.98;;;16.50;90.50;;;;;;5071628;28;20557;-69
2022/09/17 05:49:04;;;;;;;7.10;1.17;;;16.50;90.50;;;;;;5071801;28;20056;-69
2022/09/17 05:51:30;;;;;;;2.80;0.80;;;16.50;90.50;;;;;;5070872;28;20031;-69
2022/09/17 05:53:56;;;;;;;3.42;1.10;;;16.50;90.50;;;;;;5071810;28;20020;-69
2022/09/17 05:56:22;;;;;;;4.38;1.30;;;16.50;90.50;;;;;;5071203;28;20358;-69
2022/09/17 05:58:48;;;;;;;5.38;1.05;;;16.50;90.50;;;;;;5071445;28;20035;-69
2022/09/17 06:01:17;;;;;;;4.90;1.02;;;16.50;90.40;;;;;;5071336;28;20017;-69
2022/09/17 06:03:43;;;;;;;8.10;1.30;;;16.50;90.40;;;;;;5051475;28;20010;-68
2022/09/17 06:06:09;;;;;;;3.47;0.90;;;16.50;90.40;;;;;;5049912;28;20052;-69
2022/09/17 06:08:35;;;;;;;5.50;1.15;;;16.50;90.40;;;;;;5051341;28;20527;-69
2022/09/17 06:11:05;;;;;;;5.63;1.40;;;16.50;90.40;;;;;;5050082;28;20028;-69
2022/09/17 06:13:32;;;;;;;8.88;1.30;;;16.50;90.40;;;;;;5050497;28;20422;-69
2022/09/17 06:15:58;;;;;;;7.07;1.20;;;16.50;90.40;;;;;;5032422;28;20033;-68
2022/09/17 06:18:24;;;;;;;2.85;1.00;;;16.50;90.40;;;;;;5043967;28;20021;-69
2022/09/17 06:20:53;;;;;;;2.85;1.20;;;16.50;90.40;;;;;;5049975;28;20040;-69
2022/09/17 06:23:20;;;;;;;6.23;0.90;;;16.50;90.40;;;;;;5034537;28;20033;-70
2022/09/17 06:25:57;;;;;;;12.02;1.17;;;16.50;90.40;;;;;;5060866;28;20326;-69
2022/09/17 06:28:23;;;;;;;7.05;1.20;;;16.50;90.70;;;;;;5053885;28;20017;-69
2022/09/17 06:30:53;;;;;;;3.65;1.20;;;16.50;90.40;;;;;;5062437;28;20021;-69
2022/09/17 06:33:22;;;;;;;3.05;1.13;;;16.50;90.40;;;;;;5053205;28;20024;-69
2022/09/17 06:35:48;;;;;;;7.80;1.55;;;16.50;90.30;;;;;;5051706;28;20024;-69
2022/09/17 06:38:14;;;;;;;4.85;1.17;;;16.60;90.30;;;;;;5052397;28;20024;-69
2022/09/17 06:40:40;;;;;;;7.20;1.48;;;16.60;90.30;;;;;;5053184;28;20080;-69
2022/09/17 06:43:06;;;;;;;6.50;1.13;;;16.60;90.30;;;;;;5060937;28;20310;-69
2022/09/17 06:45:32;;;;;;;4.03;1.15;;;16.60;90.20;;;;;;5058907;28;20021;-69
2022/09/17 06:48:01;;;;;;;7.90;1.20;;;16.60;90.30;;;;;;5058684;28;20032;-69
2022/09/17 06:50:27;;;;;;;4.28;0.95;;;16.60;90.30;;;;;;5052171;28;20020;-70
2022/09/17 06:52:53;;;;;;;2.70;1.08;;;16.60;90.20;;;;;;5063530;28;20027;-69
2022/09/17 06:55:20;;;;;;;1.38;0.80;;;16.70;90.30;;;;;;5059142;28;20029;-69
2022/09/17 06:57:46;;;;;;;11.80;1.20;;;16.70;90.20;;;;;;5058506;28;20434;-69
2022/09/17 07:00:13;;;;;;;6.35;1.00;;;16.70;90.20;;;;;;5060963;28;20490;-69
2022/09/17 07:02:39;;;;;;;5.10;1.35;;;16.70;90.20;;;;;;5052421;28;20267;-68
2022/09/17 11:30:31;;;;;;;5.75;1.02;;;17.10;89.10;;;;;;5053889;28;20037;-66
2022/09/17 11:33:24;;;;;;;6.03;1.20;;;17.10;89.10;;;;;;5050526;28;20509;-66
2022/09/17 11:36:01;;;;;;;3.78;0.70;;;17.10;89.10;;;;;;5050525;28;20021;-66
2022/09/17 11:38:49;;;;;;;3.20;0.68;;;17.10;89.10;;;;;;5029428;28;20030;-67
2022/09/17 11:41:22;;;;;;;3.67;0.73;;;17.10;89.10;;;;;;5044037;28;20075;-66
2022/09/17 11:44:12;;;;;;;1.83;0.75;;;17.10;89.00;;;;;;5050455;28;20067;-66
2022/09/17 11:46:48;;;;;;;3.83;0.80;;;17.10;89.80;;;;;;5031432;28;20055;-67
2022/09/17 11:49:41;;;;;;;2.00;1.17;;;17.10;89.00;;;;;;5044216;28;20025;-65
2022/09/17 11:52:36;;;;;;;2.00;0.98;;;17.10;88.90;;;;;;5029316;28;20107;-66
2022/09/17 11:55:31;;;;;;;1.98;0.57;;;17.10;88.90;;;;;;4946549;28;20046;-66
2022/09/17 11:58:15;;;;;;;3.45;0.77;;;17.10;89.60;;;;;;4958370;28;20030;-66
2022/09/17 12:00:50;;;;;;;2.53;1.10;;;17.10;88.90;;;;;;4943392;28;20455;-65
2022/09/17 12:03:26;;;;;;;2.20;0.70;;;17.10;88.80;;;;;;4963059;28;20022;-66
2022/09/17 12:05:56;;;;;;;1.08;0.70;;;17.20;88.80;;;;;;4959417;28;20047;-65
2022/09/17 12:08:38;;;;;;;1.73;0.75;;;17.10;88.80;;;;;;4958140;28;20420;-66
2022/09/17 12:11:30;;;;;;;2.10;0.80;;;17.20;88.80;;;;;;4959927;28;20035;-66
2022/09/17 12:48:27;;;;;;;5.93;1.10;;;17.10;89.10;;;;;;5055614;28;20490;-67
2022/09/17 12:50:56;;;;;;;4.95;1.20;;;17.10;89.10;;;;;;5054000;28;20036;-65
2022/09/17 13:27:03;;;;;;;2.95;0.70;;;17.10;89.20;;;;;;5074616;23;20118;-68
2022/09/17 13:29:44;;;;;;;1.92;0.82;;;17.10;89.20;;;;;;5055069;28;20497;-68
2022/09/17 13:32:32;;;;;;;4.53;0.80;;;17.10;89.20;;;;;;5063412;28;20017;-68
2022/09/17 13:35:20;;;;;;;5.28;1.13;;;17.20;89.20;;;;;;5062890;28;20025;-69
2022/09/17 13:37:52;;;;;;;4.57;1.05;;;17.20;89.20;;;;;;5042489;28;20398;-68
2022/09/17 13:40:31;;;;;;;4.65;0.90;;;17.20;89.30;;;;;;5062220;28;20032;-68
2022/09/17 13:42:58;;;;;;;4.20;0.90;;;17.20;90.00;;;;;;5054966;28;20021;-68
2022/09/17 13:45:25;;;;;;;4.63;1.33;;;17.20;89.20;;;;;;5059785;28;20029;-68
2022/09/17 13:48:04;;;;;;;2.92;0.88;;;17.20;89.20;;;;;;5059697;28;20108;-68
2022/09/17 13:50:42;;;;;;;1.75;0.77;;;17.20;89.20;;;;;;5060816;28;20108;-68
2022/09/17 13:53:13;;;;;;;1.88;0.85;;;17.20;89.20;;;;;;5061854;28;20031;-68
2022/09/17 13:55:57;;;;;;;3.40;0.70;;;17.20;89.10;;;;;;5062174;28;20078;-68
2022/09/17 13:58:29;;;;;;;4.00;1.10;;;17.20;89.20;;;;;;5060122;28;20021;-68
2022/09/17 14:01:08;;;;;;;5.30;0.98;;;17.20;89.10;;;;;;5060152;28;20016;-68
2022/09/17 14:03:47;;;;;;;2.40;0.93;;;17.20;89.20;;;;;;5060067;28;20025;-68
2022/09/17 14:06:20;;;;;;;2.47;1.10;;;17.20;89.10;;;;;;5067389;28;20036;-69
2022/09/17 14:08:49;;;;;;;3.05;1.60;;;17.20;89.10;;;;;;5059940;28;20090;-68
2022/09/17 14:11:36;;;;;;;5.82;1.10;;;17.20;89.10;;;;;;5064924;28;20032;-68
2022/09/17 14:14:05;;;;;;;1.75;1.10;;;17.20;89.10;;;;;;5068669;28;20060;-68
2022/09/17 14:16:55;;;;;;;2.25;1.05;;;17.20;89.10;;;;;;5062951;28;20085;-68
2022/09/17 14:19:29;;;;;;;1.80;0.90;;;17.10;89.10;;;;;;5028885;28;20118;-68
2022/09/17 14:22:01;;;;;;;3.90;1.17;;;17.10;89.10;;;;;;5037125;28;20033;-68
2022/09/17 14:24:41;;;;;;;3.90;0.90;;;17.20;89.10;;;;;;5035877;28;20077;-68
2022/09/17 14:27:14;;;;;;;2.42;0.90;;;17.20;89.10;;;;;;5035229;28;20037;-68
2022/09/17 14:29:47;;;;;;;2.28;1.05;;;17.10;89.00;;;;;;5036559;28;20021;-68
2022/09/17 14:32:26;;;;;;;2.10;0.80;;;17.10;89.00;;;;;;5038385;28;20034;-68
2022/09/17 14:34:52;;;;;;;1.25;0.85;;;17.10;89.80;;;;;;5040180;28;20040;-68
2022/09/17 14:37:20;;;;;;;1.23;0.98;;;17.10;89.00;;;;;;5037517;28;20033;-68
2022/09/17 14:39:47;;;;;;;2.83;1.17;;;17.10;89.00;;;;;;5036792;28;20139;-68
2022/09/17 14:42:21;;;;;;;0.88;0.80;;;17.10;89.00;;;;;;5035425;28;20033;-68
2022/09/17 14:45:18;;;;;;;1.65;0.70;;;17.10;88.90;;;;;;5036613;28;20041;-68
2022/09/17 14:47:43;;;;;;;1.95;0.60;;;17.10;88.90;;;;;;4969216;28;20157;-68
2022/09/17 14:50:25;;;;;;;0.57;0.50;;;17.10;88.90;;;;;;4953332;28;20560;-68
2022/09/17 14:52:53;;;;;;;1.92;0.82;;;17.10;88.90;;;;;;4969336;28;20558;-68
2022/09/17 14:55:26;;;;;;;0.60;0.60;;;17.10;88.90;;;;;;4969292;28;20062;-68
2022/09/17 14:57:57;;;;;;;0.65;0.65;;;17.10;88.90;;;;;;4990614;28;20034;-68
2022/09/17 15:00:25;;;;;;;4.35;0.65;;;17.10;88.80;;;;;;4972373;28;20595;-68
2022/09/17 15:02:54;;;;;;;0.70;0.68;;;17.10;88.70;;;;;;4988583;28;20018;-68
2022/09/17 15:05:26;;;;;;;0.80;0.68;;;17.10;88.70;;;;;;4988050;28;20054;-68
2022/09/17 15:08:04;;;;;;;0.60;0.60;;;17.10;88.70;;;;;;4988185;28;20057;-68
2022/09/17 15:10:30;;;;;;;0.68;0.68;;;17.10;88.60;;;;;;4988435;28;20038;-68
2022/09/17 15:12:57;;;;;;;1.65;0.50;;;17.10;88.70;;;;;;4989832;28;20104;-68
2022/09/17 15:15:25;;;;;;;0.88;0.50;;;17.10;88.70;;;;;;4988067;28;20041;-68
2022/09/17 15:17:51;;;;;;;4.43;2.17;;;17.10;88.70;;;;;;4987501;28;20114;-68
2022/09/17 15:20:37;;;;;;;0.98;0.70;;;17.10;88.70;;;;;;4988408;28;20030;-68
2022/09/17 15:23:18;;;;;;;1.08;0.82;;;17.10;88.60;;;;;;4991304;28;20026;-68
2022/09/17 15:25:47;;;;;;;0.60;0.60;;;17.10;88.60;;;;;;5057479;28;20037;-68
2022/09/17 15:28:40;;;;;;;0.55;0.50;;;17.10;88.60;;;;;;5050713;28;20489;-68
2022/09/17 15:31:20;;;;;;;3.20;0.70;;;17.10;88.60;;;;;;5056325;28;20252;-68
2022/09/17 15:33:46;;;;;;;1.27;0.57;;;17.10;89.30;;;;;;5063590;28;20016;-68
2022/09/17 15:36:15;;;;;;;1.27;0.50;;;17.00;88.60;;;;;;5060634;28;20032;-68
2022/09/17 15:38:41;;;;;;;2.45;0.70;;;17.00;88.60;;;;;;5058477;28;20096;-68
2022/09/17 15:41:29;;;;;;;1.02;0.68;;;17.00;88.60;;;;;;5057886;28;20095;-68
2022/09/17 15:44:14;;;;;;;4.63;0.70;;;17.00;88.50;;;;;;5073694;28;20059;-68
2022/09/17 15:46:40;;;;;;;3.42;0.70;;;17.00;88.50;;;;;;5057259;28;20036;-68
2022/09/17 15:49:37;;;;;;;4.60;1.25;;;17.00;88.60;;;;;;5058249;28;20493;-69
2022/09/17 15:52:31;;;;;;;4.70;1.30;;;17.00;88.50;;;;;;5065516;28;20024;-68
2022/09/17 15:54:58;;;;;;;4.47;0.90;;;17.00;88.50;;;;;;5058155;28;20333;-68
2022/09/17 15:57:26;;;;;;;1.05;0.73;;;17.00;88.60;;;;;;5057836;28;20029;-68
2022/09/17 15:59:52;;;;;;;4.05;0.90;;;17.00;88.60;;;;;;5080279;28;20489;-68
2022/09/17 16:02:30;;;;;;;1.50;1.00;;;17.00;88.60;;;;;;5058119;28;20032;-68
2022/09/17 16:05:24;;;;;;;4.18;1.00;;;17.00;88.60;;;;;;5058271;28;20035;-68
2022/09/17 16:07:50;;;;;;;3.42;1.20;;;17.00;88.60;;;;;;5036302;28;20033;-68
2022/09/17 16:10:16;;;;;;;2.03;0.90;;;17.00;88.60;;;;;;5060938;28;20020;-68
2022/09/17 16:12:42;;;;;;;1.67;0.90;;;17.00;88.60;;;;;;5055256;28;20043;-68
2022/09/17 16:15:09;;;;;;;2.15;1.00;;;17.00;88.60;;;;;;5056380;28;20025;-68
2022/09/17 16:17:46;;;;;;;3.40;1.13;;;16.90;88.50;;;;;;5065437;28;20547;-68
2022/09/17 16:20:23;;;;;;;2.10;0.95;;;16.90;88.60;;;;;;5057852;28;20029;-68
2022/09/17 16:22:50;;;;;;;1.38;0.80;;;16.90;88.50;;;;;;5058061;28;20036;-68
2022/09/17 16:25:18;;;;;;;4.47;0.90;;;16.90;88.50;;;;;;5056774;28;20040;-68
2022/09/17 16:27:51;;;;;;;0.93;0.80;;;16.90;88.60;;;;;;5055924;28;20484;-68
2022/09/17 16:30:19;;;;;;;3.60;1.25;;;16.90;88.50;;;;;;5065950;28;20029;-68
2022/09/17 16:32:45;;;;;;;2.63;0.88;;;16.90;88.60;;;;;;5061722;28;20496;-68
2022/09/17 16:35:12;;;;;;;2.53;1.00;;;16.90;88.60;;;;;;5059777;28;20025;-68
2022/09/17 16:37:37;;;;;;;2.63;0.80;;;16.90;88.50;;;;;;5058008;28;20177;-68
2022/09/17 16:40:03;;;;;;;3.72;0.93;;;16.80;88.50;;;;;;5057299;28;20553;-68
2022/09/17 16:52:44;;;;;;;1.95;0.80;;;16.80;88.50;;;;;;5007554;28;20514;-68
2022/09/17 16:55:12;;;;;;;2.42;0.75;;;16.80;88.60;;;;;;5006715;28;20179;-68
2022/09/17 16:57:37;;;;;;;1.52;0.85;;;16.80;88.60;;;;;;5002537;28;20042;-68
2022/09/17 17:00:06;;;;;;;2.53;1.13;;;16.80;88.60;;;;;;5010509;28;20030;-68
2022/09/17 17:02:31;;;;;;;1.23;1.00;;;16.80;88.60;;;;;;5010183;28;20085;-68
2022/09/17 17:04:57;;;;;;;5.55;0.88;;;16.80;89.40;;;;;;4993600;28;20454;-68
2022/09/17 17:07:23;;;;;;;1.23;0.90;;;16.80;88.60;;;;;;5009268;28;20305;-68
2022/09/17 17:09:49;;;;;;;1.65;1.23;;;16.80;88.60;;;;;;5010339;28;20031;-68
2022/09/17 17:12:14;;;;;;;1.40;0.90;;;16.80;88.70;;;;;;5005641;28;20113;-68
2022/09/17 17:14:40;;;;;;;1.52;0.95;;;16.70;88.60;;;;;;5008925;28;20563;-68
2022/09/17 17:17:06;;;;;;;1.95;1.00;;;16.80;88.60;;;;;;5009465;28;20384;-68
2022/09/17 17:19:33;;;;;;;1.95;0.90;;;16.80;88.70;;;;;;5010211;28;20109;-68
2022/09/17 17:21:59;;;;;;;1.13;0.80;;;16.80;88.70;;;;;;5025294;28;20538;-68
2022/09/17 17:24:24;;;;;;;2.00;1.00;;;16.70;88.60;;;;;;5066577;28;20028;-68
2022/09/17 17:26:50;;;;;;;3.88;0.98;;;16.80;88.70;;;;;;5059681;28;20386;-68
2022/09/17 17:29:23;;;;;;;7.43;1.13;;;16.70;88.60;;;;;;5062672;28;20489;-68
2022/09/17 17:31:48;;;;;;;2.50;1.30;;;16.70;88.60;;;;;;5063884;28;20303;-68
2022/09/17 17:34:14;;;;;;;4.38;1.35;;;16.70;88.60;;;;;;5062708;28;20410;-68
2022/09/17 17:36:39;;;;;;;3.47;1.30;;;16.70;88.60;;;;;;5061121;28;20386;-68
2022/09/17 17:49:17;;;;;;;5.30;1.30;;;16.70;88.60;;;;;;5058443;28;20036;-68
2022/09/17 17:51:43;;;;;;;1.50;1.10;;;16.70;88.70;;;;;;5047725;28;20033;-68
2022/09/17 17:54:09;;;;;;;5.25;1.20;;;16.70;88.70;;;;;;5057518;28;20036;-69
2022/09/17 17:56:35;;;;;;;3.33;1.38;;;16.70;88.80;;;;;;5057262;28;20037;-68
2022/09/17 17:59:00;;;;;;;4.35;1.30;;;16.70;88.80;;;;;;5055282;28;20063;-68
2022/09/17 18:01:28;;;;;;;4.95;1.38;;;16.70;88.80;;;;;;5065069;28;20036;-68
2022/09/17 18:03:58;;;;;;;3.70;1.85;;;16.60;88.70;;;;;;5057308;28;20048;-68
2022/09/17 18:06:25;;;;;;;16.77;2.45;;;16.60;88.70;;;;;;5056020;28;20037;-68
2022/09/17 18:08:51;;;;;;;2.50;1.63;;;16.70;88.80;;;;;;5059515;28;20060;-68
2022/09/17 18:11:16;;;;;;;2.65;1.52;;;16.60;88.70;;;;;;5060402;28;20024;-68
2022/09/17 18:13:42;;;;;;;3.55;1.83;;;16.60;88.70;;;;;;5054001;28;20044;-68
2022/09/17 18:16:10;;;;;;;2.63;1.35;;;16.60;88.70;;;;;;5055270;28;20028;-69
2022/09/17 18:18:38;;;;;;;2.05;1.10;;;16.60;88.70;;;;;;5061241;28;20039;-68
2022/09/17 18:21:06;;;;;;;4.95;1.10;;;16.60;88.70;;;;;;5055379;28;20056;-68
2022/09/17 18:23:38;;;;;;;4.55;1.60;;;16.60;88.80;;;;;;5061214;28;20016;-68
2022/09/17 18:26:05;;;;;;;3.42;0.95;;;16.60;88.80;;;;;;5058921;28;20126;-68
2022/09/17 18:28:33;;;;;;;2.67;1.10;;;16.50;88.70;;;;;;5058827;28;20079;-68
2022/09/17 18:31:15;;;;;;;4.88;1.13;;;16.60;88.90;;;;;;5059772;28;20100;-68
2022/09/17 18:33:41;;;;;;;2.95;1.17;;;16.60;88.80;;;;;;5060322;28;20474;-68
2022/09/17 18:36:06;;;;;;;3.53;1.10;;;16.50;88.80;;;;;;5061385;28;20086;-68
2022/09/17 18:38:34;;;;;;;6.85;1.40;;;16.50;88.70;;;;;;5062680;28;20307;-68
2022/09/17 18:41:09;;;;;;;3.47;1.45;;;16.50;88.70;;;;;;5054345;28;20021;-68
2022/09/17 18:43:35;;;;;;;3.67;1.58;;;16.50;88.70;;;;;;5062030;28;20538;-68
2022/09/17 18:46:02;;;;;;;6.40;1.83;;;16.50;88.70;;;;;;5061662;28;20036;-68
2022/09/17 18:48:28;;;;;;;1.27;1.13;;;16.50;88.80;;;;;;5060960;28;20032;-68
2022/09/17 18:51:05;;;;;;;4.10;1.20;;;16.50;88.80;;;;;;5059944;28;20039;-68
2022/09/17 18:53:35;;;;;;;5.10;1.63;;;16.50;88.80;;;;;;5065340;28;20401;-68
2022/09/17 18:56:17;;;;;;;2.95;1.40;;;16.50;88.80;;;;;;5061576;28;20070;-68
2022/09/17 18:58:48;;;;;;;3.33;1.20;;;16.50;88.90;;;;;;5058912;28;20029;-68
2022/09/17 19:01:15;;;;;;;3.03;1.17;;;16.50;88.80;;;;;;5065770;28;20116;-68
2022/09/17 19:03:41;;;;;;;1.45;1.05;;;16.50;88.80;;;;;;5059003;28;20373;-68
2022/09/17 19:06:08;;;;;;;4.85;1.00;;;16.50;88.80;;;;;;5056394;28;20025;-69
2022/09/17 19:08:34;;;;;;;1.83;1.27;;;16.50;88.80;;;;;;5059153;28;20561;-68
2022/09/17 19:11:00;;;;;;;2.17;1.40;;;16.50;88.80;;;;;;5061778;28;20036;-68
2022/09/17 19:13:31;;;;;;;3.95;1.00;;;16.50;88.80;;;;;;5076066;28;20370;-68
2022/09/17 19:15:58;;;;;;;3.40;1.20;;;16.50;88.80;;;;;;5050689;28;20372;-68
2022/09/17 19:18:24;;;;;;;5.93;1.10;;;16.50;88.80;;;;;;5058663;28;20083;-68
2022/09/17 19:20:49;;;;;;;1.95;0.82;;;16.50;88.80;;;;;;5059904;28;20013;-68
2022/09/17 19:23:15;;;;;;;3.70;1.20;;;16.50;88.80;;;;;;5061966;28;20419;-68
2022/09/17 19:25:41;;;;;;;3.00;1.02;;;16.50;88.80;;;;;;5058884;28;20197;-68
2022/09/17 19:28:07;;;;;;;3.83;0.90;;;16.50;88.70;;;;;;5073560;28;20032;-68
2022/09/17 19:30:33;;;;;;;1.35;0.75;;;16.50;88.80;;;;;;5054826;28;20021;-68
2022/09/17 19:32:59;;;;;;;1.45;1.00;;;16.50;88.80;;;;;;5058227;28;20076;-68
2022/09/17 19:35:25;;;;;;;2.45;0.90;;;16.50;88.80;;;;;;5058140;28;20100;-68
2022/09/17 19:37:51;;;;;;;2.88;0.90;;;16.50;88.80;;;;;;5058452;28;20086;-68
2022/09/17 19:40:18;;;;;;;1.15;0.80;;;16.50;88.80;;;;;;5060205;28;20036;-68
2022/09/17 19:42:49;;;;;;;2.47;0.70;;;16.50;88.80;;;;;;5061813;28;20505;-68
2022/09/17 19:45:15;;;;;;;1.38;1.00;;;16.50;88.80;;;;;;5054181;28;20405;-68
2022/09/17 19:47:41;;;;;;;2.25;1.13;;;16.50;88.80;;;;;;5055449;28;20115;-68
2022/09/17 19:50:07;;;;;;;2.03;0.90;;;16.50;88.80;;;;;;5058333;28;20021;-68
2022/09/17 19:52:32;;;;;;;2.70;0.80;;;16.50;88.80;;;;;;5073529;28;20017;-68
2022/09/17 19:54:58;;;;;;;1.13;0.75;;;16.50;88.80;;;;;;5059956;28;20025;-68
2022/09/17 19:57:23;;;;;;;0.85;0.68;;;16.50;88.80;;;;;;5061050;28;20466;-68
2022/09/17 19:59:49;;;;;;;2.92;0.88;;;16.50;88.80;;;;;;5055063;28;20427;-68
2022/09/17 20:02:15;;;;;;;1.42;0.63;;;16.50;88.80;;;;;;5053969;28;20028;-68